Time;durP1;ratioP1;P1;durP2;ratioP2;P2;SDS_P1;SDS_P2;PMS_P1;PMS_P2;Temp;Humidity;BMP_temperature;BMP_pressure;BME280_temperature;BME280_humidity;BME280_pressure;Samples;Min_cycle;Max_cycle;Signal;HPM_P1;HPM_P2
2023/07/16 00:00:50;;;;;;;;;5.33;4.00;;;;;21.79;70.28;100973.34;5021192;28;54057;-74
2023/07/16 00:03:15;;;;;;;;;6.00;3.00;;;;;21.74;70.70;100966.34;5023024;28;46693;-75
2023/07/16 00:05:40;;;;;;;;;7.00;5.00;;;;;21.70;71.58;100977.19;5027361;28;69466;-74
2023/07/16 00:08:06;;;;;;;;;4.00;3.00;;;;;21.67;72.25;100969.22;5034446;28;63123;-74
2023/07/16 00:10:35;;;;;;;;;3.67;3.67;;;;;21.63;72.29;100972.97;5030937;28;45836;-76
2023/07/16 00:13:01;;;;;;;;;4.00;4.00;;;;;21.63;72.54;100972.97;5027484;28;46347;-74
2023/07/16 00:15:26;;;;;;;;;5.67;4.00;;;;;21.63;72.67;100974.78;5031540;28;45410;-74
2023/07/16 00:17:52;;;;;;;;;3.33;3.33;;;;;21.63;73.00;100975.66;5029724;28;45505;-74
2023/07/16 00:20:18;;;;;;;;;6.00;3.33;;;;;21.64;73.72;100981.91;5032013;28;45380;-75
2023/07/16 00:22:43;;;;;;;;;3.00;3.00;;;;;21.59;74.21;100979.34;5030315;28;62112;-75
2023/07/16 00:25:08;;;;;;;;;7.00;4.33;;;;;21.59;74.34;100987.41;5024883;28;45345;-74
2023/07/16 00:27:34;;;;;;;;;3.33;3.33;;;;;21.57;74.69;100969.56;5027053;28;45703;-74
2023/07/16 00:29:59;;;;;;;;;5.00;3.67;;;;;21.54;75.58;100977.75;5023497;28;45222;-74
2023/07/16 00:32:24;;;;;;;;;9.67;4.67;;;;;21.51;75.79;100973.34;5017524;28;46275;-75
2023/07/16 00:34:50;;;;;;;;;3.67;3.67;;;;;21.44;76.63;100988.78;5030640;28;68632;-75
2023/07/16 00:37:15;;;;;;;;;4.67;3.00;;;;;21.40;76.82;100978.16;5027360;28;62517;-75
2023/07/16 00:39:41;;;;;;;;;4.67;4.00;;;;;21.36;77.79;100977.41;5036677;28;45369;-74
2023/07/16 00:42:06;;;;;;;;;5.00;4.00;;;;;21.34;77.84;100978.38;5033262;28;58951;-75
2023/07/16 00:44:31;;;;;;;;;8.67;4.00;;;;;21.31;78.62;100979.34;5030184;28;45523;-76
2023/07/16 00:46:57;;;;;;;;;7.00;4.33;;;;;21.25;79.25;100978.59;5035811;28;58614;-74
2023/07/16 00:49:23;;;;;;;;;8.00;5.00;;;;;21.26;79.63;100986.63;5036467;28;60327;-74
2023/07/16 00:51:49;;;;;;;;;10.33;4.67;;;;;21.23;79.86;100986.72;5027020;28;46795;-75
2023/07/16 00:54:15;;;;;;;;;5.00;4.00;;;;;21.17;80.70;100982.41;5024204;28;67196;-74
2023/07/16 00:56:40;;;;;;;;;7.00;5.67;;;;;21.14;81.34;100982.50;5027244;28;62887;-75
2023/07/16 00:59:06;;;;;;;;;8.00;5.00;;;;;21.14;81.26;100981.63;5030330;28;59036;-74
2023/07/16 01:01:31;;;;;;;;;9.67;5.00;;;;;21.12;82.49;100980.81;5028437;28;69779;-76
2023/07/16 01:03:56;;;;;;;;;5.00;3.00;;;;;21.12;81.71;100981.69;5031455;28;45447;-75
2023/07/16 01:06:25;;;;;;;;;7.33;5.00;;;;;21.11;82.80;100984.41;5029113;28;45296;-74
2023/07/16 01:08:56;;;;;;;;;4.00;4.00;;;;;21.11;83.08;100979.06;5024757;28;45510;-74
2023/07/16 01:11:22;;;;;;;;;4.00;4.00;;;;;21.07;83.74;100974.69;5033982;28;46725;-75
2023/07/16 01:13:47;;;;;;;;;8.67;7.00;;;;;21.03;83.44;100986.44;5024825;28;67010;-74
2023/07/16 01:16:23;;;;;;;;;8.00;4.00;;;;;20.96;84.99;100985.75;5003091;28;45352;-74
2023/07/16 01:18:49;;;;;;;;;7.00;5.00;;;;;20.95;84.77;100973.25;5025630;28;45488;-74
2023/07/16 01:21:19;;;;;;;;;8.33;6.67;;;;;20.97;84.29;100986.63;5023339;28;46243;-75
2023/07/16 01:24:09;;;;;;;;;8.33;6.33;;;;;20.97;85.44;100990.19;5025700;28;45324;-76
2023/07/16 01:26:34;;;;;;;;;7.00;5.00;;;;;20.98;85.12;100993.75;5027376;28;45377;-74
2023/07/16 01:29:19;;;;;;;;;6.00;4.00;;;;;20.93;85.89;100994.78;5034901;28;45490;-75
2023/07/16 01:31:46;;;;;;;;;13.00;6.00;;;;;20.86;86.91;100995.88;5029262;28;46604;-75
2023/07/16 01:34:12;;;;;;;;;9.00;6.00;;;;;20.82;87.04;100991.50;5036267;28;45465;-75
2023/07/16 01:36:39;;;;;;;;;6.33;4.67;;;;;20.83;87.31;101003.16;5029398;28;45550;-74
2023/07/16 01:39:05;;;;;;;;;10.00;7.00;;;;;20.80;87.11;100993.38;5025147;28;59828;-75
2023/07/16 01:41:30;;;;;;;;;7.00;7.00;;;;;20.81;87.79;100996.94;5010281;28;46623;-75
2023/07/16 01:43:56;;;;;;;;;9.00;6.00;;;;;20.77;88.28;101001.50;5034094;28;70450;-75
2023/07/16 01:46:21;;;;;;;;;7.33;7.00;;;;;20.78;88.63;101002.41;5023205;28;55277;-74
2023/07/16 01:48:47;;;;;;;;;6.67;5.00;;;;;20.78;88.58;101005.09;5028754;28;62350;-75
2023/07/16 01:51:13;;;;;;;;;7.00;7.00;;;;;20.76;89.18;101002.41;5023279;28;55380;-74
2023/07/16 01:53:39;;;;;;;;;9.00;5.00;;;;;20.73;90.07;101007.00;5025172;28;45329;-75
2023/07/16 01:56:05;;;;;;;;;9.67;6.67;;;;;20.69;90.37;101008.00;5032281;28;45403;-75
2023/07/16 01:58:30;;;;;;;;;6.67;5.00;;;;;20.65;90.73;101010.78;5035321;28;62895;-75
2023/07/16 02:00:55;;;;;;;;;9.67;7.00;;;;;20.64;90.91;101003.66;5019212;28;69689;-74
2023/07/16 02:03:21;;;;;;;;;11.67;6.00;;;;;20.64;91.41;101010.81;5027181;28;68418;-74
2023/07/16 02:05:47;;;;;;;;;8.67;8.67;;;;;20.60;91.63;101007.34;5020869;28;52630;-75
2023/07/16 02:08:13;;;;;;;;;10.33;7.00;;;;;20.61;91.97;101008.22;5016676;28;45436;-74
2023/07/16 02:10:38;;;;;;;;;8.00;5.33;;;;;20.61;91.93;101009.13;5014114;28;66675;-76
2023/07/16 02:13:03;;;;;;;;;7.67;6.67;;;;;20.63;93.20;101009.06;5034478;28;66939;-75
2023/07/16 02:15:29;;;;;;;;;7.33;5.67;;;;;20.62;92.58;101012.69;5033493;28;45487;-75
2023/07/16 02:17:54;;;;;;;;;10.00;9.67;;;;;20.61;91.90;101018.94;5026999;28;64293;-75
2023/07/16 02:20:19;;;;;;;;;5.00;3.33;;;;;20.55;92.24;101021.78;5028519;28;69347;-74
2023/07/16 02:22:45;;;;;;;;;5.33;5.33;;;;;20.50;93.09;101011.19;5023164;28;45340;-75
2023/07/16 02:25:10;;;;;;;;;10.33;7.00;;;;;20.46;93.64;101027.41;5035585;28;45443;-75
2023/07/16 02:27:35;;;;;;;;;8.00;4.00;;;;;20.47;93.82;101030.06;5035261;28;52587;-74
2023/07/16 02:30:01;;;;;;;;;6.00;5.00;;;;;20.44;93.97;101030.09;5034865;28;47428;-74
2023/07/16 02:32:26;;;;;;;;;6.33;5.00;;;;;20.38;94.42;101033.81;5029490;28;45532;-74
2023/07/16 02:34:52;;;;;;;;;9.00;6.00;;;;;20.32;94.97;101039.34;5019755;28;45321;-75
2023/07/16 02:37:17;;;;;;;;;7.67;6.00;;;;;20.32;94.87;101043.84;5017420;28;59613;-75
2023/07/16 02:39:45;;;;;;;;;9.33;6.00;;;;;20.28;95.15;101040.34;5016014;28;66406;-74
2023/07/16 02:42:10;;;;;;;;;9.33;6.67;;;;;20.25;96.61;101052.97;5021229;28;45289;-75
2023/07/16 02:44:41;;;;;;;;;7.67;6.00;;;;;20.21;96.17;101045.91;5021188;28;66715;-75
2023/07/16 02:47:07;;;;;;;;;6.00;1.67;;;;;20.19;95.96;101043.28;5019970;28;45505;-74
2023/07/16 02:49:32;;;;;;;;;6.33;6.33;;;;;20.21;96.01;101053.97;5032383;28;47344;-76
2023/07/16 02:51:57;;;;;;;;;7.00;6.00;;;;;20.20;96.35;101039.69;5025968;28;47797;-75
2023/07/16 02:54:23;;;;;;;;;5.33;5.33;;;;;20.18;96.91;101045.97;5028389;28;66121;-74
2023/07/16 02:56:48;;;;;;;;;7.33;6.00;;;;;20.20;96.32;101057.56;5016467;28;61157;-74
2023/07/16 02:59:13;;;;;;;;;5.67;4.00;;;;;20.19;96.21;101051.34;5014776;28;69901;-77
2023/07/16 03:01:38;;;;;;;;;8.00;2.00;;;;;20.23;96.42;101038.69;5019419;28;66346;-75
2023/07/16 03:04:04;;;;;;;;;10.00;6.00;;;;;20.23;96.89;101053.00;5015135;28;63465;-74
2023/07/16 03:06:29;;;;;;;;;8.00;6.67;;;;;20.21;96.45;101048.59;5026904;28;45674;-75
2023/07/16 03:08:54;;;;;;;;;5.67;5.67;;;;;20.23;96.96;101053.00;5017222;28;53931;-75
2023/07/16 03:11:20;;;;;;;;;5.67;5.00;;;;;20.21;97.34;101059.31;5018817;28;59426;-75
2023/07/16 03:13:45;;;;;;;;;6.67;4.00;;;;;20.21;97.47;101059.31;5024036;28;65059;-74
2023/07/16 03:16:10;;;;;;;;;4.67;4.67;;;;;20.21;97.48;101065.56;5027669;28;61517;-75
2023/07/16 03:18:36;;;;;;;;;9.67;6.33;;;;;20.20;97.54;101050.41;5030013;28;69422;-76
2023/07/16 03:21:01;;;;;;;;;8.00;6.33;;;;;20.19;97.50;101058.47;5032931;28;66481;-74
2023/07/16 03:23:27;;;;;;;;;5.33;5.33;;;;;20.19;98.07;101055.78;5022408;28;45381;-75
2023/07/16 03:25:52;;;;;;;;;8.67;6.33;;;;;20.16;98.11;101059.44;5028293;28;45570;-76
2023/07/16 03:28:18;;;;;;;;;5.00;5.00;;;;;20.12;99.45;101060.44;5032260;28;47364;-74
2023/07/16 03:30:50;;;;;;;;;7.33;6.33;;;;;20.09;99.32;101048.00;5030610;28;67949;-75
2023/07/16 03:33:16;;;;;;;;;7.67;5.00;;;;;20.03;99.62;101063.34;5025152;28;45403;-75
2023/07/16 03:35:45;;;;;;;;;6.00;5.00;;;;;20.03;99.57;101063.34;5028908;28;45568;-74
2023/07/16 03:38:11;;;;;;;;;9.67;7.67;;;;;20.01;100.00;101067.84;5038218;28;46430;-75
2023/07/16 03:40:37;;;;;;;;;9.00;6.00;;;;;19.99;100.00;101075.94;5024543;28;45432;-75
2023/07/16 03:43:02;;;;;;;;;5.33;4.33;;;;;19.97;100.00;101072.41;5036696;28;46397;-75
2023/07/16 03:45:28;;;;;;;;;6.67;5.00;;;;;19.93;100.00;101060.00;5031754;28;45403;-76
2023/07/16 03:47:53;;;;;;;;;6.33;6.33;;;;;19.94;100.00;101080.53;5036984;28;67226;-74
2023/07/16 03:50:19;;;;;;;;;6.67;6.00;;;;;19.93;100.00;101080.56;5027944;28;45430;-75
2023/07/16 03:52:44;;;;;;;;;9.33;6.00;;;;;19.89;100.00;101072.59;5027970;28;45312;-74
2023/07/16 03:55:10;;;;;;;;;9.67;7.33;;;;;19.89;100.00;101077.06;5036923;28;45348;-74
2023/07/16 03:57:36;;;;;;;;;10.67;4.67;;;;;19.86;100.00;101078.00;5036141;28;46453;-75
2023/07/16 04:00:07;;;;;;;;;5.33;5.00;;;;;19.82;100.00;101084.38;5025942;28;45801;-76
2023/07/16 04:02:33;;;;;;;;;10.00;7.33;;;;;19.80;100.00;101079.97;5027174;28;45340;-75
2023/07/16 04:04:58;;;;;;;;;6.67;5.00;;;;;19.78;100.00;101077.31;5032440;28;62496;-75
2023/07/16 04:07:23;;;;;;;;;6.00;6.00;;;;;19.76;100.00;101081.84;5037505;28;70105;-75
2023/07/16 04:09:49;;;;;;;;;8.00;7.67;;;;;19.72;100.00;101073.91;5031644;28;68737;-74
2023/07/16 04:12:14;;;;;;;;;13.67;5.33;;;;;19.71;100.00;101077.47;5027175;28;45250;-75
2023/07/16 04:14:39;;;;;;;;;8.00;6.33;;;;;19.69;100.00;101088.25;5033626;28;48734;-76
2023/07/16 04:17:05;;;;;;;;;10.00;7.67;;;;;19.66;100.00;101096.38;5027931;28;47495;-75
2023/07/16 04:19:30;;;;;;;;;8.67;7.33;;;;;19.69;100.00;101082.00;5025491;28;46032;-75
2023/07/16 04:21:55;;;;;;;;;10.00;7.00;;;;;19.69;100.00;101085.56;5024550;28;63042;-74
2023/07/16 04:24:21;;;;;;;;;9.00;6.33;;;;;19.65;100.00;101081.19;5030427;28;63385;-74
2023/07/16 04:26:46;;;;;;;;;7.33;6.00;;;;;19.62;100.00;101097.34;5028753;28;46649;-75
2023/07/16 04:29:12;;;;;;;;;10.00;5.67;;;;;19.59;100.00;101105.44;5031700;28;66462;-74
2023/07/16 04:31:37;;;;;;;;;7.33;6.33;;;;;19.59;100.00;101094.72;5033460;28;54697;-74
2023/07/16 04:34:02;;;;;;;;;7.67;5.67;;;;;19.61;100.00;101100.94;5035223;28;45399;-75
2023/07/16 04:36:28;;;;;;;;;10.33;7.00;;;;;19.59;100.00;101100.94;5033404;28;50364;-75
2023/07/16 04:38:53;;;;;;;;;11.67;5.33;;;;;19.60;100.00;101110.78;5028486;28;67435;-74
2023/07/16 04:41:19;;;;;;;;;8.67;6.33;;;;;19.59;100.00;101108.09;5033770;28;45580;-77
2023/07/16 04:43:44;;;;;;;;;6.67;5.00;;;;;19.59;100.00;101118.81;5031610;28;62194;-75
2023/07/16 04:46:11;;;;;;;;;7.00;5.67;;;;;19.58;100.00;101109.00;5028334;28;59108;-76
2023/07/16 04:48:37;;;;;;;;;12.67;8.00;;;;;19.57;100.00;101109.91;5027165;28;45475;-75
2023/07/16 04:51:02;;;;;;;;;7.67;6.67;;;;;19.56;100.00;101121.56;5030610;28;45457;-75
2023/07/16 04:53:27;;;;;;;;;8.00;6.33;;;;;19.50;100.00;101117.22;5028390;28;45382;-74
2023/07/16 04:55:53;;;;;;;;;11.00;7.33;;;;;19.44;100.00;101128.06;5028669;28;54009;-74
2023/07/16 04:58:18;;;;;;;;;8.00;7.00;;;;;19.37;100.00;101127.28;5031339;28;51106;-75
2023/07/16 05:00:43;;;;;;;;;8.33;6.67;;;;;19.31;100.00;101116.69;5028497;28;45500;-74
2023/07/16 05:03:09;;;;;;;;;8.67;8.00;;;;;19.27;100.00;101128.38;5027702;28;46569;-73
2023/07/16 05:05:34;;;;;;;;;9.33;9.00;;;;;19.23;100.00;101125.78;5027143;28;56260;-75
2023/07/16 05:08:00;;;;;;;;;11.00;7.00;;;;;19.25;100.00;101130.22;5026932;28;45462;-74
2023/07/16 05:10:26;;;;;;;;;12.00;6.00;;;;;19.22;100.00;101135.63;5024402;28;45475;-74
2023/07/16 05:12:52;;;;;;;;;11.00;6.67;;;;;19.22;100.00;101135.63;5033510;28;47030;-75
2023/07/16 05:15:17;;;;;;;;;11.67;8.00;;;;;19.21;100.00;101144.56;5133937;22;65826;-75
2023/07/16 05:17:42;;;;;;;;;9.00;8.00;;;;;19.19;100.00;101143.72;5030904;28;70073;-74
2023/07/16 05:20:11;;;;;;;;;10.00;6.67;;;;;19.23;100.00;101136.50;5025026;28;61775;-74
2023/07/16 05:22:36;;;;;;;;;10.67;9.33;;;;;19.24;100.00;101138.28;5033603;28;45463;-74
2023/07/16 05:25:02;;;;;;;;;8.00;8.00;;;;;19.27;100.00;101139.09;5032014;28;46453;-73
2023/07/16 05:27:28;;;;;;;;;8.33;8.00;;;;;19.28;100.00;101150.69;5032897;28;45472;-73
2023/07/16 05:29:53;;;;;;;;;12.33;7.67;;;;;19.29;100.00;101147.13;5028034;28;51898;-73
2023/07/16 05:32:18;;;;;;;;;11.00;7.00;;;;;19.29;100.00;101158.69;5031117;28;56080;-75
2023/07/16 05:34:44;;;;;;;;;9.33;9.00;;;;;19.28;100.00;101146.22;5023798;28;67861;-74
2023/07/16 05:37:09;;;;;;;;;8.33;6.33;;;;;19.30;100.00;101163.13;5030262;28;45335;-74
2023/07/16 05:39:35;;;;;;;;;7.67;7.33;;;;;19.26;100.00;101161.44;5026044;28;64449;-75
2023/07/16 05:42:02;;;;;;;;;11.67;9.67;;;;;19.26;100.00;101155.19;5033026;28;45584;-73
2023/07/16 05:44:28;;;;;;;;;7.33;7.00;;;;;19.26;100.00;101144.47;5033815;28;47876;-75
2023/07/16 05:46:53;;;;;;;;;8.00;7.67;;;;;19.33;100.00;101154.16;5029135;28;45599;-76
2023/07/16 05:49:19;;;;;;;;;8.00;8.00;;;;;19.37;100.00;101155.84;5035786;28;45343;-74
2023/07/16 05:51:44;;;;;;;;;10.00;7.67;;;;;19.42;100.00;101170.03;5025759;28;61206;-74
2023/07/16 05:54:09;;;;;;;;;11.33;7.00;;;;;19.38;100.00;101153.13;5033160;28;69483;-73
2023/07/16 05:56:34;;;;;;;;;11.33;8.33;;;;;19.46;100.00;101153.00;5021595;28;67106;-73
2023/07/16 05:59:00;;;;;;;;;7.00;7.00;;;;;19.51;100.00;101180.56;5035143;28;61584;-74
2023/07/16 06:01:25;;;;;;;;;12.33;7.33;;;;;19.53;100.00;101189.44;5026032;28;45880;-75
2023/07/16 06:03:51;;;;;;;;;8.67;8.67;;;;;19.49;100.00;101178.81;5029456;28;46721;-75
2023/07/16 06:06:16;;;;;;;;;11.33;7.00;;;;;19.50;100.00;101184.19;5034839;28;45336;-81
2023/07/16 06:08:41;;;;;;;;;8.67;6.67;;;;;19.56;100.00;101200.13;5023293;28;45523;-80
2023/07/16 06:11:07;;;;;;;;;8.33;6.67;;;;;19.60;100.00;101187.56;5019052;28;46200;-77
2023/07/16 06:13:32;;;;;;;;;8.33;6.00;;;;;19.63;100.00;101191.06;5022618;28;46407;-78
2023/07/16 06:15:57;;;;;;;;;11.00;8.67;;;;;19.71;100.00;101201.63;5018335;28;45500;-81
2023/07/16 06:18:23;;;;;;;;;7.00;6.00;;;;;19.77;100.00;101200.63;5014241;28;45488;-81
2023/07/16 06:20:48;;;;;;;;;7.33;6.33;;;;;19.83;100.00;101203.16;5027947;28;62972;-83
2023/07/16 06:23:16;;;;;;;;;9.33;6.00;;;;;19.85;100.00;101196.84;5019360;28;46463;-81
2023/07/16 06:25:44;;;;;;;;;8.00;5.67;;;;;19.92;100.00;101207.44;5029069;28;45526;-81
2023/07/16 06:28:09;;;;;;;;;12.33;6.00;;;;;19.97;100.00;101206.41;5034666;28;45447;-86
2023/07/16 06:30:35;;;;;;;;;9.67;6.67;;;;;20.02;100.00;101209.88;5013913;28;45502;-87
2023/07/16 06:33:00;;;;;;;;;9.00;7.00;;;;;20.04;100.00;101212.53;5026635;28;67650;-86
2023/07/16 06:35:25;;;;;;;;;10.67;7.00;;;;;20.04;100.00;101210.75;5032617;28;61028;-87
2023/07/16 06:37:51;;;;;;;;;10.33;6.33;;;;;20.10;100.00;101218.66;5025312;28;45569;-88
2023/07/16 06:40:16;;;;;;;;;6.00;5.67;;;;;20.16;100.00;101212.25;5027007;28;52915;-86
2023/07/16 06:42:41;;;;;;;;;9.67;6.00;;;;;20.17;100.00;101215.81;5027791;28;63217;-86
2023/07/16 06:45:07;;;;;;;;;6.33;6.33;;;;;20.21;100.00;101220.22;5025717;28;58921;-87
2023/07/16 06:47:33;;;;;;;;;11.67;7.33;;;;;20.22;100.00;101217.47;5019692;28;45593;-83
2023/07/16 06:49:58;;;;;;;;;11.33;8.67;;;;;20.23;100.00;101213.88;5024570;28;54543;-82
2023/07/16 06:52:27;;;;;;;;;6.00;5.33;;;;;20.23;100.00;101216.56;5025774;28;62395;-83
2023/07/16 06:54:53;;;;;;;;;9.33;7.33;;;;;20.23;100.00;101219.25;5024607;28;45498;-84
2023/07/16 06:57:18;;;;;;;;;10.00;6.67;;;;;20.27;100.00;101214.69;5038453;28;45546;-83
2023/07/16 06:59:44;;;;;;;;;7.00;7.00;;;;;20.27;100.00;101220.06;5032901;28;62547;-82
2023/07/16 07:02:10;;;;;;;;;7.00;6.00;;;;;20.30;100.00;101214.66;5031060;28;45558;-82
2023/07/16 07:04:35;;;;;;;;;7.67;6.33;;;;;20.35;100.00;101208.25;5033332;28;45399;-83
2023/07/16 07:07:00;;;;;;;;;4.67;4.00;;;;;20.38;100.00;101210.84;5010148;28;62459;-83
2023/07/16 07:09:26;;;;;;;;;6.00;6.00;;;;;20.44;100.00;101217.00;5022178;28;45435;-82
2023/07/16 07:11:51;;;;;;;;;9.00;5.33;;;;;20.49;100.00;101220.47;5028358;28;68553;-83
2023/07/16 07:14:16;;;;;;;;;5.00;5.00;;;;;20.50;100.00;101215.06;5022380;28;61783;-84
2023/07/16 07:16:42;;;;;;;;;6.33;5.00;;;;;20.53;100.00;101224.84;5031303;28;63800;-82
2023/07/16 07:19:08;;;;;;;;;5.00;4.00;;;;;20.53;100.00;101217.69;5038375;28;45992;-84
2023/07/16 07:21:33;;;;;;;;;9.33;8.00;;;;;20.62;100.00;101219.28;5026303;28;46174;-82
2023/07/16 07:23:58;;;;;;;;;6.00;5.00;;;;;20.71;100.00;101224.41;5023387;28;51818;-83
2023/07/16 07:26:24;;;;;;;;;7.00;5.33;;;;;20.77;100.00;101223.38;5039100;28;57800;-84
2023/07/16 07:28:49;;;;;;;;;11.33;6.00;;;;;20.82;100.00;101225.00;5023510;28;45540;-83
2023/07/16 07:31:15;;;;;;;;;10.00;6.00;;;;;20.87;100.00;101228.47;5034834;28;65609;-83
2023/07/16 07:33:40;;;;;;;;;9.00;5.00;;;;;20.92;100.00;101217.63;5021923;28;67416;-83
2023/07/16 07:36:06;;;;;;;;;8.67;5.00;;;;;20.97;100.00;101221.06;5037431;28;61571;-83
2023/07/16 07:38:31;;;;;;;;;10.33;4.00;;;;;20.99;100.00;101218.38;5029241;28;45429;-85
2023/07/16 07:40:56;;;;;;;;;6.00;6.00;;;;;21.07;100.00;101224.41;5027618;28;69363;-83
2023/07/16 07:43:21;;;;;;;;;6.67;5.00;;;;;21.12;100.00;101217.97;5037547;28;65716;-83
2023/07/16 07:45:47;;;;;;;;;6.33;5.33;;;;;21.14;100.00;101229.56;5027539;28;45320;-83
2023/07/16 07:48:12;;;;;;;;;5.00;3.33;;;;;21.12;100.00;101220.66;5023872;28;46394;-83
2023/07/16 07:50:37;;;;;;;;;13.33;6.00;;;;;21.15;100.00;101228.66;5029019;28;72357;-82
2023/07/16 07:53:03;;;;;;;;;6.00;4.33;;;;;21.16;100.00;101243.84;5035463;28;65664;-83
2023/07/16 07:55:28;;;;;;;;;5.67;5.00;;;;;21.27;100.00;101237.31;5031764;28;45304;-82
2023/07/16 07:57:54;;;;;;;;;4.67;4.33;;;;;21.36;100.00;101239.75;5018337;28;45594;-86
2023/07/16 08:00:19;;;;;;;;;11.00;6.00;;;;;21.44;100.00;101238.63;5030600;28;62796;-83
2023/07/16 08:02:45;;;;;;;;;9.33;4.33;;;;;21.54;100.00;101241.06;5029268;28;46393;-82
2023/07/16 08:05:10;;;;;;;;;7.00;5.33;;;;;21.60;100.00;101235.53;5019928;28;45423;-83
2023/07/16 08:07:36;;;;;;;;;5.00;5.00;;;;;21.67;100.00;101243.34;5031507;28;45518;-82
2023/07/16 08:10:01;;;;;;;;;5.00;4.00;;;;;21.78;100.00;101237.66;5032765;28;47253;-84
2023/07/16 08:12:26;;;;;;;;;8.67;6.67;;;;;21.87;100.00;101232.03;5023866;28;45348;-83
2023/07/16 08:14:52;;;;;;;;;4.67;4.00;;;;;21.95;100.00;101237.22;5034396;28;45322;-82
2023/07/16 08:17:17;;;;;;;;;4.33;4.33;;;;;22.01;100.00;101242.41;5037336;28;58757;-84
2023/07/16 08:19:42;;;;;;;;;7.67;5.00;;;;;22.00;100.00;101239.72;5030665;28;69617;-84
2023/07/16 08:22:08;;;;;;;;;7.00;6.00;;;;;21.96;100.00;101231.78;5032386;28;66258;-82
2023/07/16 08:24:33;;;;;;;;;4.67;3.33;;;;;21.98;100.00;101237.97;5036490;28;62604;-82
2023/07/16 08:26:58;;;;;;;;;8.33;6.00;;;;;22.03;100.00;101229.78;5037220;28;59331;-83
2023/07/16 08:29:24;;;;;;;;;6.33;5.00;;;;;22.09;100.00;101236.78;5037394;28;71168;-83
2023/07/16 08:31:50;;;;;;;;;5.00;5.00;;;;;22.18;99.39;101231.16;5022729;28;65129;-82
2023/07/16 08:34:15;;;;;;;;;4.67;4.67;;;;;22.28;99.70;101239.84;5022570;28;45312;-83
2023/07/16 08:36:40;;;;;;;;;5.00;5.00;;;;;22.43;99.10;101228.59;5036987;28;62240;-82
2023/07/16 08:39:07;;;;;;;;;9.00;5.00;;;;;22.60;99.26;101236.13;5028133;28;46477;-82
2023/07/16 08:41:32;;;;;;;;;5.00;5.00;;;;;22.76;97.09;101240.06;5030518;28;45369;-83
2023/07/16 08:43:58;;;;;;;;;4.33;4.33;;;;;22.84;96.33;101242.50;5022798;28;45557;-85
2023/07/16 08:46:24;;;;;;;;;5.33;4.33;;;;;22.89;95.17;101244.13;5031899;28;45573;-83
2023/07/16 08:48:50;;;;;;;;;8.00;5.00;;;;;22.94;94.41;101246.69;5030128;28;69248;-86
2023/07/16 08:51:16;;;;;;;;;3.67;3.67;;;;;22.92;93.90;101254.81;5035591;28;67735;-83
2023/07/16 08:53:41;;;;;;;;;7.00;4.00;;;;;22.92;93.42;101241.34;5022340;28;45624;-82
2023/07/16 08:56:07;;;;;;;;;6.33;4.00;;;;;22.94;92.72;101249.38;5035139;28;45458;-83
2023/07/16 08:58:32;;;;;;;;;6.00;4.67;;;;;22.93;92.85;101256.56;5018168;28;69565;-85
2023/07/16 09:00:59;;;;;;;;;7.00;4.67;;;;;22.94;92.23;101247.56;5032339;28;45229;-83
2023/07/16 09:03:25;;;;;;;;;5.33;5.00;;;;;22.95;91.56;101251.13;5024482;28;45472;-84
2023/07/16 09:05:50;;;;;;;;;5.00;5.00;;;;;23.01;91.31;101250.94;5035904;28;63617;-83
2023/07/16 09:08:15;;;;;;;;;5.33;5.00;;;;;23.09;91.51;101245.28;5031075;28;65415;-83
2023/07/16 09:10:42;;;;;;;;;5.00;3.00;;;;;23.21;90.72;101234.06;5022506;28;45232;-84
2023/07/16 09:13:07;;;;;;;;;4.00;4.00;;;;;23.31;89.72;101253.50;5031543;28;45546;-84
2023/07/16 09:15:34;;;;;;;;;6.00;4.00;;;;;23.30;89.78;101244.53;5019874;28;45323;-83
2023/07/16 09:17:59;;;;;;;;;7.33;4.33;;;;;23.36;89.19;101255.09;5036128;28;47592;-83
2023/07/16 09:20:25;;;;;;;;;4.00;3.00;;;;;23.37;89.43;101251.47;5023534;28;45463;-83
2023/07/16 09:22:54;;;;;;;;;4.00;3.00;;;;;23.43;88.73;101256.63;5022913;28;45470;-83
2023/07/16 09:25:19;;;;;;;;;4.33;3.00;;;;;23.37;87.34;101246.06;5036804;28;45529;-83
2023/07/16 09:27:49;;;;;;;;;4.67;3.67;;;;;23.29;88.13;101250.00;5016648;28;70218;-83
2023/07/16 09:30:15;;;;;;;;;3.33;3.00;;;;;23.26;87.47;101249.16;5027919;28;45294;-83
2023/07/16 09:32:40;;;;;;;;;2.33;2.00;;;;;23.20;87.09;101251.19;5036001;28;45357;-83
2023/07/16 09:35:09;;;;;;;;;6.00;4.00;;;;;23.23;86.79;101262.75;5023380;28;45552;-83
2023/07/16 09:37:37;;;;;;;;;4.00;2.33;;;;;23.25;86.20;101260.88;5016843;28;46159;-86
2023/07/16 09:40:03;;;;;;;;;6.00;3.00;;;;;23.26;86.43;101259.03;5025302;28;45661;-84
2023/07/16 09:42:29;;;;;;;;;5.00;2.00;;;;;23.27;87.10;101258.09;5031133;28;45325;-83
2023/07/16 09:44:59;;;;;;;;;4.33;4.00;;;;;23.32;86.74;101261.53;5022582;28;50214;-82
2023/07/16 09:47:25;;;;;;;;;3.33;3.00;;;;;23.32;87.28;101257.94;5015083;28;65389;-83
2023/07/16 09:49:50;;;;;;;;;5.00;3.00;;;;;23.36;87.41;101263.19;5036587;28;45209;-83
2023/07/16 09:52:15;;;;;;;;;6.33;4.33;;;;;23.40;88.07;101258.56;5033380;28;62945;-82
2023/07/16 09:54:41;;;;;;;;;5.00;3.67;;;;;23.38;88.18;101261.31;5021706;28;63145;-83
2023/07/16 09:57:06;;;;;;;;;3.33;3.33;;;;;23.39;87.83;101254.13;5035722;28;69420;-83
2023/07/16 09:59:32;;;;;;;;;4.00;4.00;;;;;23.35;87.99;101256.03;5034758;28;67348;-83
2023/07/16 10:01:58;;;;;;;;;3.00;3.00;;;;;23.36;88.11;101243.44;5023889;28;45551;-82
2023/07/16 10:04:23;;;;;;;;;3.00;3.00;;;;;23.38;88.28;101234.34;5033237;28;45275;-85
2023/07/16 10:06:50;;;;;;;;;6.00;3.00;;;;;23.47;88.43;101241.25;5033655;28;64701;-84
2023/07/16 10:09:31;;;;;;;;;3.67;3.00;;;;;23.57;87.76;101241.78;5024814;28;45530;-85
2023/07/16 10:12:16;;;;;;;;;5.00;4.00;;;;;23.64;87.36;101236.13;5019082;28;45478;-83
2023/07/16 10:14:46;;;;;;;;;7.00;4.33;;;;;23.71;86.98;101235.00;5029829;28;45499;-83
2023/07/16 10:17:25;;;;;;;;;5.67;4.00;;;;;23.79;85.98;101246.34;5017717;28;48395;-83
2023/07/16 10:19:54;;;;;;;;;3.67;3.00;;;;;23.89;85.59;101225.31;5019607;28;45329;-83
2023/07/16 10:22:41;;;;;;;;;4.33;3.00;;;;;23.95;84.59;101226.91;5034214;28;45465;-86
2023/07/16 10:25:33;;;;;;;;;5.67;4.00;;;;;23.99;83.67;101226.72;5024165;28;45308;-83
2023/07/16 10:27:58;;;;;;;;;4.67;2.33;;;;;24.04;82.58;101234.66;5021065;28;69931;-84
2023/07/16 10:30:23;;;;;;;;;4.00;2.33;;;;;24.07;80.26;101233.63;5030389;28;69360;-84
2023/07/16 10:32:52;;;;;;;;;6.00;4.33;;;;;24.05;78.85;101217.53;5033366;28;45703;-83
2023/07/16 10:35:17;;;;;;;;;3.67;3.67;;;;;24.08;78.50;101225.50;5011864;28;45499;-84
2023/07/16 10:37:42;;;;;;;;;5.00;3.00;;;;;24.13;78.70;101228.00;5029588;28;57004;-83
2023/07/16 10:40:12;;;;;;;;;2.00;2.00;;;;;24.15;78.00;101229.72;5023119;28;59768;-83
2023/07/16 10:42:40;;;;;;;;;4.00;4.00;;;;;24.14;77.47;101211.78;5030080;28;46209;-86
2023/07/16 10:45:07;;;;;;;;;4.67;3.00;;;;;24.27;77.34;101214.84;5035133;28;45348;-83
2023/07/16 10:47:34;;;;;;;;;3.67;3.00;;;;;24.36;76.79;101211.84;5022761;28;47627;-83
2023/07/16 10:50:00;;;;;;;;;3.00;2.33;;;;;24.46;77.83;101223.16;5036042;28;45435;-84
2023/07/16 10:52:25;;;;;;;;;4.00;2.00;;;;;24.63;77.22;101217.06;5034256;28;45466;-84
2023/07/16 10:54:54;;;;;;;;;4.00;3.00;;;;;24.82;75.76;101209.91;5015351;28;45150;-83
2023/07/16 10:57:23;;;;;;;;;3.00;2.00;;;;;24.98;75.97;101211.06;5032046;28;47644;-83
2023/07/16 10:59:49;;;;;;;;;3.67;3.00;;;;;25.08;75.28;101227.75;5027468;28;46475;-84
2023/07/16 11:02:16;;;;;;;;;2.00;2.00;;;;;25.10;74.20;101212.38;5031220;28;45463;-83
2023/07/16 11:04:43;;;;;;;;;3.67;3.00;;;;;25.19;73.74;101197.56;5033610;28;45740;-84
2023/07/16 11:07:11;;;;;;;;;3.67;3.33;;;;;25.30;71.81;101206.97;5036009;28;46525;-83
2023/07/16 11:09:55;;;;;;;;;5.00;3.00;;;;;25.41;71.99;101200.19;5016870;28;45456;-84
2023/07/16 11:12:22;;;;;;;;;8.67;7.33;;;;;25.48;72.00;101209.81;5025446;28;45484;-83
2023/07/16 11:14:56;;;;;;;;;5.00;5.00;;;;;25.55;71.67;101205.88;5031617;28;45320;-83